createdAt,value
2019-01-24T00:03:10.541Z,-5.72
2019-01-24T00:13:12.570Z,-5.68
2019-01-24T00:23:15.311Z,-5.43
2019-01-24T00:33:17.395Z,-5.64
2019-01-24T00:43:19.464Z,-5.60
2019-01-24T00:53:21.518Z,-5.94
2019-01-24T01:03:23.596Z,-6.24
2019-01-24T01:13:25.677Z,-5.99
2019-01-24T01:23:27.701Z,-5.97
2019-01-24T01:33:29.790Z,-6.28
2019-01-24T01:43:31.853Z,-6.39
2019-01-24T01:53:34.094Z,-6.52
2019-01-24T02:03:36.512Z,-6.35
2019-01-24T02:13:38.522Z,-6.49
2019-01-24T02:23:40.683Z,-6.47
2019-01-24T02:33:42.626Z,-6.46
2019-01-24T02:43:44.635Z,-6.52
2019-01-24T02:53:46.670Z,-6.54
2019-01-24T03:03:49.035Z,-6.34
2019-01-24T03:13:51.027Z,-6.22
2019-01-24T03:23:53.193Z,-6.11
2019-01-24T03:33:55.150Z,-5.83
2019-01-24T03:43:57.117Z,-5.73
2019-01-24T03:53:59.053Z,-5.69
2019-01-24T04:04:01.139Z,-5.54
2019-01-24T04:14:03.745Z,-5.25
2019-01-24T04:24:05.770Z,-5.23
2019-01-24T04:34:07.981Z,-5.11
2019-01-24T04:44:09.954Z,-4.88
2019-01-24T04:54:11.918Z,-4.79
2019-01-24T05:04:14.213Z,-4.69
2019-01-24T05:14:16.284Z,-4.59
2019-01-24T05:24:18.328Z,-4.45
2019-01-24T05:34:20.275Z,-4.28
2019-01-24T05:44:22.250Z,-4.15
2019-01-24T05:54:24.272Z,-4.14
2019-01-24T06:04:26.667Z,-4.12
2019-01-24T06:14:29.634Z,-4.06
2019-01-24T06:24:31.874Z,-4.01
2019-01-24T06:34:34.058Z,-3.95
2019-01-24T06:44:36.053Z,-3.90
2019-01-24T06:54:38.375Z,-3.95
2019-01-24T07:04:40.429Z,-3.95
2019-01-24T07:14:42.432Z,-3.94
2019-01-24T07:24:44.603Z,-3.85
2019-01-24T07:34:46.632Z,-3.85
2019-01-24T07:44:48.606Z,-3.81
2019-01-24T07:54:50.631Z,-3.76
2019-01-24T08:04:52.620Z,-3.58
2019-01-24T08:14:54.579Z,-3.48
2019-01-24T08:24:56.545Z,-3.28
2019-01-24T08:34:58.532Z,-2.93
2019-01-24T08:45:01.871Z,-2.92
2019-01-24T08:55:07.277Z,-2.78
2019-01-24T09:05:10.914Z,-2.87
2019-01-24T09:15:13.250Z,-2.77
2019-01-24T09:25:15.508Z,-2.57
2019-01-24T09:35:17.693Z,-2.38
2019-01-24T09:45:29.071Z,-2.32
2019-01-24T09:55:31.216Z,-2.23
2019-01-24T10:05:33.643Z,-1.86
2019-01-24T10:15:35.630Z,-2.13
2019-01-24T10:25:38.474Z,-2.03
2019-01-24T10:35:40.536Z,-2.04
2019-01-24T10:45:43.525Z,-1.97
2019-01-24T10:55:45.686Z,-1.78
2019-01-24T11:05:47.803Z,-1.69
2019-01-24T11:15:49.892Z,-1.66
2019-01-24T11:25:51.947Z,-1.84
2019-01-24T11:35:54.318Z,-1.71
2019-01-24T11:46:00.186Z,-1.63
2019-01-24T11:56:02.344Z,-1.58
2019-01-24T12:06:04.770Z,-1.52
2019-01-24T12:16:06.882Z,-1.44
2019-01-24T12:26:11.490Z,-1.53
2019-01-24T12:36:13.435Z,-1.14
2019-01-24T12:46:15.404Z,-1.07
2019-01-24T12:56:17.373Z,-1.20
2019-01-24T13:06:20.180Z,-1.50
2019-01-24T13:16:22.193Z,-1.47
2019-01-24T13:26:24.124Z,-1.59
2019-01-24T13:36:26.266Z,-1.74
2019-01-24T13:46:28.502Z,-1.76
2019-01-24T13:56:30.758Z,-1.91
2019-01-24T14:06:34.483Z,-2.01
2019-01-24T14:16:37.090Z,-2.17
2019-01-24T14:26:40.643Z,-2.17
2019-01-24T14:36:43.129Z,-2.22
2019-01-24T14:46:45.135Z,-2.34
2019-01-24T14:56:47.096Z,-2.43
2019-01-24T15:06:49.345Z,-2.53
2019-01-24T15:16:51.568Z,-2.58
2019-01-24T15:26:53.567Z,-2.57
2019-01-24T15:36:55.849Z,-2.81
2019-01-24T15:46:57.930Z,-2.85
2019-01-24T15:57:00.091Z,-2.89
2019-01-24T16:07:02.221Z,-3.01
2019-01-24T16:17:04.715Z,-3.14
2019-01-24T16:27:07.238Z,-3.22
2019-01-24T16:37:09.218Z,-3.25
2019-01-24T16:47:11.407Z,-3.35
2019-01-24T16:57:13.511Z,-3.42
2019-01-24T17:07:15.515Z,-3.30
2019-01-24T17:17:18.364Z,-3.48
2019-01-24T17:27:20.346Z,-3.48
2019-01-24T17:37:22.332Z,-3.58
2019-01-24T17:47:24.623Z,-3.58
2019-01-24T17:57:26.666Z,-3.57
2019-01-24T18:07:28.759Z,-3.66
2019-01-24T18:17:30.790Z,-3.64
2019-01-24T18:27:32.712Z,-3.74
2019-01-24T18:37:35.022Z,-3.69
2019-01-24T18:47:37.006Z,-3.72
2019-01-24T18:57:39.091Z,-3.75
2019-01-24T19:07:41.186Z,-3.72
2019-01-24T19:17:43.477Z,-3.81
2019-01-24T19:27:45.871Z,-3.75
2019-01-24T19:37:49.308Z,-3.74
2019-01-24T19:47:52.177Z,-3.81
2019-01-24T19:57:56.051Z,-3.88
2019-01-24T20:07:58.840Z,-3.84
2019-01-24T20:18:01.728Z,-3.83
2019-01-24T20:28:04.234Z,-3.79
2019-01-24T20:38:07.108Z,-3.83
2019-01-24T20:48:09.372Z,-3.77
2019-01-24T20:58:11.409Z,-3.86
2019-01-24T21:08:13.388Z,-3.85
2019-01-24T21:18:15.420Z,-3.84
2019-01-24T21:28:17.539Z,-3.84
2019-01-24T21:38:21.060Z,-3.82
2019-01-24T21:48:23.281Z,-3.90
2019-01-24T21:58:25.313Z,-3.88
2019-01-24T22:08:27.316Z,-3.91
2019-01-24T22:18:29.382Z,-3.98
2019-01-24T22:28:31.453Z,-3.91
2019-01-24T22:38:33.481Z,-3.98
2019-01-24T22:48:35.576Z,-3.92
2019-01-24T22:58:37.674Z,-3.94
2019-01-24T23:08:39.653Z,-3.95
2019-01-24T23:14:44.108Z,-4.00
2019-01-24T23:19:46.041Z,-4.02
2019-01-24T23:24:47.992Z,-3.99
2019-01-24T23:29:50.279Z,-3.98
2019-01-24T23:34:52.214Z,-4.02
2019-01-24T23:39:54.236Z,-4.02
2019-01-24T23:44:56.170Z,-3.99
2019-01-24T23:49:58.140Z,-4.03
2019-01-24T23:55:00.394Z,-4.09
